sensor_id;sensor_type;location;lat;lon;timestamp;P1;durP1;ratioP1;P2;durP2;ratioP2
56712;SDS011;42589;45.536;9.032;2023-02-20T00:02:07;198.85;;;103.75;;
56712;SDS011;42589;45.536;9.032;2023-02-20T00:05:08;194.73;;;104.38;;
56712;SDS011;42589;45.536;9.032;2023-02-20T00:08:09;189.43;;;103.60;;
56712;SDS011;42589;45.536;9.032;2023-02-20T00:11:09;192.32;;;104.90;;
56712;SDS011;42589;45.536;9.032;2023-02-20T00:14:11;209.85;;;108.53;;
56712;SDS011;42589;45.536;9.032;2023-02-20T00:17:12;194.68;;;103.95;;
56712;SDS011;42589;45.536;9.032;2023-02-20T00:20:14;210.35;;;108.88;;
56712;SDS011;42589;45.536;9.032;2023-02-20T00:23:20;206.43;;;105.90;;
56712;SDS011;42589;45.536;9.032;2023-02-20T00:26:22;214.23;;;109.55;;
56712;SDS011;42589;45.536;9.032;2023-02-20T00:29:23;199.23;;;104.30;;
56712;SDS011;42589;45.536;9.032;2023-02-20T00:32:24;196.93;;;104.07;;
56712;SDS011;42589;45.536;9.032;2023-02-20T00:35:25;204.13;;;109.15;;
56712;SDS011;42589;45.536;9.032;2023-02-20T00:38:29;198.88;;;108.32;;
56712;SDS011;42589;45.536;9.032;2023-02-20T00:41:30;211.23;;;109.13;;
56712;SDS011;42589;45.536;9.032;2023-02-20T00:44:31;210.02;;;109.97;;
56712;SDS011;42589;45.536;9.032;2023-02-20T00:47:32;218.27;;;110.55;;
56712;SDS011;42589;45.536;9.032;2023-02-20T00:50:33;217.88;;;109.57;;
56712;SDS011;42589;45.536;9.032;2023-02-20T00:53:34;208.88;;;107.47;;
56712;SDS011;42589;45.536;9.032;2023-02-20T00:56:36;219.95;;;113.15;;
56712;SDS011;42589;45.536;9.032;2023-02-20T00:59:38;218.25;;;111.60;;
56712;SDS011;42589;45.536;9.032;2023-02-20T01:02:38;210.88;;;107.50;;
56712;SDS011;42589;45.536;9.032;2023-02-20T01:05:40;219.98;;;111.05;;
56712;SDS011;42589;45.536;9.032;2023-02-20T01:08:41;215.00;;;107.38;;
56712;SDS011;42589;45.536;9.032;2023-02-20T01:11:42;217.13;;;110.13;;
56712;SDS011;42589;45.536;9.032;2023-02-20T01:14:46;220.20;;;110.88;;
56712;SDS011;42589;45.536;9.032;2023-02-20T01:17:47;204.10;;;108.20;;
56712;SDS011;42589;45.536;9.032;2023-02-20T01:20:50;219.93;;;111.70;;
56712;SDS011;42589;45.536;9.032;2023-02-20T01:23:51;209.90;;;109.93;;
56712;SDS011;42589;45.536;9.032;2023-02-20T01:26:53;212.38;;;109.65;;
56712;SDS011;42589;45.536;9.032;2023-02-20T01:29:54;220.30;;;111.18;;
56712;SDS011;42589;45.536;9.032;2023-02-20T01:32:55;207.63;;;106.00;;
56712;SDS011;42589;45.536;9.032;2023-02-20T01:35:55;203.32;;;106.75;;
56712;SDS011;42589;45.536;9.032;2023-02-20T01:38:56;220.63;;;111.30;;
56712;SDS011;42589;45.536;9.032;2023-02-20T01:42:01;206.63;;;104.63;;
56712;SDS011;42589;45.536;9.032;2023-02-20T01:45:16;216.15;;;110.03;;
56712;SDS011;42589;45.536;9.032;2023-02-20T01:48:23;214.20;;;109.47;;
56712;SDS011;42589;45.536;9.032;2023-02-20T01:51:24;209.77;;;109.28;;
56712;SDS011;42589;45.536;9.032;2023-02-20T01:54:27;217.88;;;108.63;;
56712;SDS011;42589;45.536;9.032;2023-02-20T01:57:30;210.75;;;107.47;;
56712;SDS011;42589;45.536;9.032;2023-02-20T02:00:34;209.45;;;107.82;;
56712;SDS011;42589;45.536;9.032;2023-02-20T02:03:38;206.30;;;105.80;;
56712;SDS011;42589;45.536;9.032;2023-02-20T02:06:43;210.18;;;108.70;;
56712;SDS011;42589;45.536;9.032;2023-02-20T02:09:57;190.35;;;100.68;;
56712;SDS011;42589;45.536;9.032;2023-02-20T02:13:01;207.13;;;104.32;;
56712;SDS011;42589;45.536;9.032;2023-02-20T02:39:45;194.95;;;103.13;;
56712;SDS011;42589;45.536;9.032;2023-02-20T02:43:38;197.30;;;99.80;;
56712;SDS011;42589;45.536;9.032;2023-02-20T02:52:55;197.43;;;102.05;;
56712;SDS011;42589;45.536;9.032;2023-02-20T02:55:57;206.95;;;104.72;;
56712;SDS011;42589;45.536;9.032;2023-02-20T02:59:19;202.02;;;103.32;;
56712;SDS011;42589;45.536;9.032;2023-02-20T03:02:29;206.40;;;102.28;;
56712;SDS011;42589;45.536;9.032;2023-02-20T03:05:42;208.45;;;102.35;;
56712;SDS011;42589;45.536;9.032;2023-02-20T03:08:55;201.48;;;101.53;;
56712;SDS011;42589;45.536;9.032;2023-02-20T03:12:05;193.52;;;101.05;;
56712;SDS011;42589;45.536;9.032;2023-02-20T03:15:13;202.60;;;103.72;;
56712;SDS011;42589;45.536;9.032;2023-02-20T03:18:35;192.77;;;101.90;;
56712;SDS011;42589;45.536;9.032;2023-02-20T03:21:41;205.63;;;102.20;;
56712;SDS011;42589;45.536;9.032;2023-02-20T03:24:47;202.43;;;99.75;;
56712;SDS011;42589;45.536;9.032;2023-02-20T03:27:58;194.93;;;99.25;;
56712;SDS011;42589;45.536;9.032;2023-02-20T03:31:05;188.68;;;97.15;;
56712;SDS011;42589;45.536;9.032;2023-02-20T03:34:13;194.05;;;97.95;;
56712;SDS011;42589;45.536;9.032;2023-02-20T03:37:35;190.20;;;97.07;;
56712;SDS011;42589;45.536;9.032;2023-02-20T03:40:57;182.38;;;95.53;;
56712;SDS011;42589;45.536;9.032;2023-02-20T03:44:17;191.10;;;96.95;;
56712;SDS011;42589;45.536;9.032;2023-02-20T03:47:21;195.88;;;99.88;;
56712;SDS011;42589;45.536;9.032;2023-02-20T03:50:25;188.20;;;96.45;;
56712;SDS011;42589;45.536;9.032;2023-02-20T03:53:44;201.38;;;100.28;;
56712;SDS011;42589;45.536;9.032;2023-02-20T03:56:46;194.38;;;100.75;;
56712;SDS011;42589;45.536;9.032;2023-02-20T04:03:03;205.82;;;102.53;;
56712;SDS011;42589;45.536;9.032;2023-02-20T04:06:10;200.88;;;100.85;;
56712;SDS011;42589;45.536;9.032;2023-02-20T04:09:15;197.95;;;99.68;;
56712;SDS011;42589;45.536;9.032;2023-02-20T04:12:27;206.20;;;100.10;;
56712;SDS011;42589;45.536;9.032;2023-02-20T04:15:33;203.52;;;99.75;;
56712;SDS011;42589;45.536;9.032;2023-02-20T04:18:34;202.68;;;102.45;;
56712;SDS011;42589;45.536;9.032;2023-02-20T04:21:46;200.70;;;101.05;;
56712;SDS011;42589;45.536;9.032;2023-02-20T04:27:57;207.23;;;102.22;;
56712;SDS011;42589;45.536;9.032;2023-02-20T04:30:58;202.32;;;99.88;;
56712;SDS011;42589;45.536;9.032;2023-02-20T04:33:59;210.65;;;103.70;;
56712;SDS011;42589;45.536;9.032;2023-02-20T04:37:05;205.50;;;101.75;;
56712;SDS011;42589;45.536;9.032;2023-02-20T04:40:13;211.65;;;103.28;;
56712;SDS011;42589;45.536;9.032;2023-02-20T04:43:15;201.85;;;100.78;;
56712;SDS011;42589;45.536;9.032;2023-02-20T04:46:16;207.95;;;101.15;;
56712;SDS011;42589;45.536;9.032;2023-02-20T04:49:17;201.27;;;97.07;;
56712;SDS011;42589;45.536;9.032;2023-02-20T04:52:18;207.23;;;101.00;;
56712;SDS011;42589;45.536;9.032;2023-02-20T04:55:19;208.35;;;100.97;;
56712;SDS011;42589;45.536;9.032;2023-02-20T04:58:20;210.38;;;102.15;;
56712;SDS011;42589;45.536;9.032;2023-02-20T05:01:21;199.02;;;100.95;;
56712;SDS011;42589;45.536;9.032;2023-02-20T05:04:22;206.02;;;100.47;;
56712;SDS011;42589;45.536;9.032;2023-02-20T05:07:23;209.63;;;101.15;;
56712;SDS011;42589;45.536;9.032;2023-02-20T05:10:24;197.95;;;99.75;;
56712;SDS011;42589;45.536;9.032;2023-02-20T05:13:26;205.02;;;100.85;;
56712;SDS011;42589;45.536;9.032;2023-02-20T05:16:27;204.35;;;102.53;;
56712;SDS011;42589;45.536;9.032;2023-02-20T05:19:28;212.93;;;103.50;;
56712;SDS011;42589;45.536;9.032;2023-02-20T05:22:29;210.07;;;101.72;;
56712;SDS011;42589;45.536;9.032;2023-02-20T05:25:30;204.07;;;101.38;;
56712;SDS011;42589;45.536;9.032;2023-02-20T05:28:31;209.15;;;101.78;;
56712;SDS011;42589;45.536;9.032;2023-02-20T05:31:32;217.20;;;105.18;;
56712;SDS011;42589;45.536;9.032;2023-02-20T05:34:33;207.70;;;102.13;;
56712;SDS011;42589;45.536;9.032;2023-02-20T05:37:34;198.90;;;98.28;;
56712;SDS011;42589;45.536;9.032;2023-02-20T05:40:35;196.95;;;99.13;;
56712;SDS011;42589;45.536;9.032;2023-02-20T05:43:36;196.95;;;98.38;;
56712;SDS011;42589;45.536;9.032;2023-02-20T05:46:38;203.43;;;102.88;;
56712;SDS011;42589;45.536;9.032;2023-02-20T05:49:40;200.82;;;101.10;;
56712;SDS011;42589;45.536;9.032;2023-02-20T05:52:41;193.70;;;99.20;;
56712;SDS011;42589;45.536;9.032;2023-02-20T05:55:42;190.70;;;96.25;;
56712;SDS011;42589;45.536;9.032;2023-02-20T05:58:44;189.95;;;96.18;;
56712;SDS011;42589;45.536;9.032;2023-02-20T06:01:46;179.45;;;93.60;;
56712;SDS011;42589;45.536;9.032;2023-02-20T06:04:50;171.38;;;90.07;;
56712;SDS011;42589;45.536;9.032;2023-02-20T06:07:51;175.02;;;92.63;;
56712;SDS011;42589;45.536;9.032;2023-02-20T06:10:52;179.95;;;92.68;;
56712;SDS011;42589;45.536;9.032;2023-02-20T06:13:53;183.98;;;93.65;;
56712;SDS011;42589;45.536;9.032;2023-02-20T06:16:55;188.75;;;94.32;;
56712;SDS011;42589;45.536;9.032;2023-02-20T06:19:56;182.98;;;93.43;;
56712;SDS011;42589;45.536;9.032;2023-02-20T06:22:57;186.75;;;95.75;;
56712;SDS011;42589;45.536;9.032;2023-02-20T06:25:58;180.45;;;92.90;;
56712;SDS011;42589;45.536;9.032;2023-02-20T06:28:58;173.75;;;90.05;;
56712;SDS011;42589;45.536;9.032;2023-02-20T06:32:00;177.07;;;92.18;;
56712;SDS011;42589;45.536;9.032;2023-02-20T06:35:01;179.52;;;93.88;;
56712;SDS011;42589;45.536;9.032;2023-02-20T06:38:02;173.90;;;89.75;;
56712;SDS011;42589;45.536;9.032;2023-02-20T06:41:02;181.57;;;93.38;;
56712;SDS011;42589;45.536;9.032;2023-02-20T06:44:04;176.32;;;93.20;;
56712;SDS011;42589;45.536;9.032;2023-02-20T06:47:05;172.63;;;90.03;;
56712;SDS011;42589;45.536;9.032;2023-02-20T06:50:08;178.32;;;91.93;;
56712;SDS011;42589;45.536;9.032;2023-02-20T06:53:09;163.38;;;87.53;;
56712;SDS011;42589;45.536;9.032;2023-02-20T06:56:13;178.07;;;93.40;;
56712;SDS011;42589;45.536;9.032;2023-02-20T06:59:18;179.50;;;92.90;;
56712;SDS011;42589;45.536;9.032;2023-02-20T07:02:19;182.63;;;94.10;;
56712;SDS011;42589;45.536;9.032;2023-02-20T07:05:20;178.82;;;95.45;;
56712;SDS011;42589;45.536;9.032;2023-02-20T07:08:21;184.68;;;97.03;;
56712;SDS011;42589;45.536;9.032;2023-02-20T07:11:22;181.77;;;94.75;;
56712;SDS011;42589;45.536;9.032;2023-02-20T07:14:23;175.70;;;94.00;;
56712;SDS011;42589;45.536;9.032;2023-02-20T07:17:24;178.90;;;92.60;;
56712;SDS011;42589;45.536;9.032;2023-02-20T07:20:25;183.90;;;93.30;;
56712;SDS011;42589;45.536;9.032;2023-02-20T07:23:26;183.98;;;93.60;;
56712;SDS011;42589;45.536;9.032;2023-02-20T07:26:27;193.85;;;97.10;;
56712;SDS011;42589;45.536;9.032;2023-02-20T07:29:29;192.95;;;95.82;;
56712;SDS011;42589;45.536;9.032;2023-02-20T07:32:31;199.55;;;98.07;;
56712;SDS011;42589;45.536;9.032;2023-02-20T07:35:33;207.82;;;102.20;;
56712;SDS011;42589;45.536;9.032;2023-02-20T07:38:36;195.23;;;98.28;;
56712;SDS011;42589;45.536;9.032;2023-02-20T07:41:38;186.20;;;97.35;;
56712;SDS011;42589;45.536;9.032;2023-02-20T07:44:39;194.75;;;98.80;;
56712;SDS011;42589;45.536;9.032;2023-02-20T07:47:43;200.00;;;100.28;;
56712;SDS011;42589;45.536;9.032;2023-02-20T07:50:43;198.90;;;102.25;;
56712;SDS011;42589;45.536;9.032;2023-02-20T07:53:48;196.82;;;100.35;;
56712;SDS011;42589;45.536;9.032;2023-02-20T07:59:50;203.02;;;97.07;;
56712;SDS011;42589;45.536;9.032;2023-02-20T08:02:50;188.65;;;96.95;;
56712;SDS011;42589;45.536;9.032;2023-02-20T08:05:51;200.75;;;98.60;;
56712;SDS011;42589;45.536;9.032;2023-02-20T08:08:53;196.45;;;99.28;;
56712;SDS011;42589;45.536;9.032;2023-02-20T08:11:54;188.20;;;94.78;;
56712;SDS011;42589;45.536;9.032;2023-02-20T08:14:55;189.82;;;94.90;;
56712;SDS011;42589;45.536;9.032;2023-02-20T08:17:56;189.40;;;94.07;;
56712;SDS011;42589;45.536;9.032;2023-02-20T08:20:57;196.85;;;98.07;;
56712;SDS011;42589;45.536;9.032;2023-02-20T08:23:59;192.30;;;95.10;;
56712;SDS011;42589;45.536;9.032;2023-02-20T08:27:00;184.63;;;94.57;;
56712;SDS011;42589;45.536;9.032;2023-02-20T08:30:01;183.43;;;95.25;;
56712;SDS011;42589;45.536;9.032;2023-02-20T08:33:03;185.85;;;93.53;;
56712;SDS011;42589;45.536;9.032;2023-02-20T08:36:05;188.85;;;94.32;;
56712;SDS011;42589;45.536;9.032;2023-02-20T08:39:11;184.45;;;95.30;;
56712;SDS011;42589;45.536;9.032;2023-02-20T08:42:15;178.23;;;92.55;;
56712;SDS011;42589;45.536;9.032;2023-02-20T08:45:17;174.55;;;91.63;;
56712;SDS011;42589;45.536;9.032;2023-02-20T08:48:18;195.82;;;97.68;;
56712;SDS011;42589;45.536;9.032;2023-02-20T08:51:20;175.93;;;91.35;;
56712;SDS011;42589;45.536;9.032;2023-02-20T08:54:21;175.70;;;90.45;;
56712;SDS011;42589;45.536;9.032;2023-02-20T08:57:22;177.65;;;92.43;;
56712;SDS011;42589;45.536;9.032;2023-02-20T09:00:24;178.18;;;95.38;;
56712;SDS011;42589;45.536;9.032;2023-02-20T09:03:25;177.15;;;90.07;;
56712;SDS011;42589;45.536;9.032;2023-02-20T09:06:27;184.73;;;94.15;;
56712;SDS011;42589;45.536;9.032;2023-02-20T09:09:29;179.15;;;92.82;;
56712;SDS011;42589;45.536;9.032;2023-02-20T09:12:30;178.18;;;92.63;;
56712;SDS011;42589;45.536;9.032;2023-02-20T09:15:31;171.38;;;91.47;;
56712;SDS011;42589;45.536;9.032;2023-02-20T09:18:37;169.60;;;88.97;;
56712;SDS011;42589;45.536;9.032;2023-02-20T09:21:38;174.70;;;92.82;;
56712;SDS011;42589;45.536;9.032;2023-02-20T09:24:39;185.60;;;94.10;;
56712;SDS011;42589;45.536;9.032;2023-02-20T09:27:41;181.68;;;94.15;;
56712;SDS011;42589;45.536;9.032;2023-02-20T09:30:42;170.40;;;89.82;;
56712;SDS011;42589;45.536;9.032;2023-02-20T09:33:46;163.50;;;89.22;;
56712;SDS011;42589;45.536;9.032;2023-02-20T09:36:47;183.98;;;94.20;;
56712;SDS011;42589;45.536;9.032;2023-02-20T09:39:48;172.65;;;89.25;;
56712;SDS011;42589;45.536;9.032;2023-02-20T09:49:13;172.93;;;89.05;;
56712;SDS011;42589;45.536;9.032;2023-02-20T09:52:24;164.23;;;88.32;;
56712;SDS011;42589;45.536;9.032;2023-02-20T09:55:25;167.63;;;89.25;;
56712;SDS011;42589;45.536;9.032;2023-02-20T09:58:44;162.10;;;85.72;;
56712;SDS011;42589;45.536;9.032;2023-02-20T10:05:28;154.48;;;83.95;;
56712;SDS011;42589;45.536;9.032;2023-02-20T10:08:30;156.32;;;82.90;;
56712;SDS011;42589;45.536;9.032;2023-02-20T10:14:40;160.70;;;86.23;;
56712;SDS011;42589;45.536;9.032;2023-02-20T10:27:58;148.27;;;80.43;;
56712;SDS011;42589;45.536;9.032;2023-02-20T10:31:38;141.52;;;76.53;;
56712;SDS011;42589;45.536;9.032;2023-02-20T10:34:52;148.55;;;79.95;;
56712;SDS011;42589;45.536;9.032;2023-02-20T10:38:09;140.45;;;76.47;;
56712;SDS011;42589;45.536;9.032;2023-02-20T10:41:16;136.35;;;74.80;;
56712;SDS011;42589;45.536;9.032;2023-02-20T10:44:34;137.10;;;75.53;;
56712;SDS011;42589;45.536;9.032;2023-02-20T10:47:48;135.45;;;73.30;;
56712;SDS011;42589;45.536;9.032;2023-02-20T10:57:29;139.02;;;75.70;;
56712;SDS011;42589;45.536;9.032;2023-02-20T11:00:37;137.00;;;73.93;;
56712;SDS011;42589;45.536;9.032;2023-02-20T11:03:46;136.68;;;72.20;;
56712;SDS011;42589;45.536;9.032;2023-02-20T11:06:58;138.13;;;73.57;;
56712;SDS011;42589;45.536;9.032;2023-02-20T11:10:02;137.45;;;74.93;;
56712;SDS011;42589;45.536;9.032;2023-02-20T11:13:04;130.10;;;72.32;;
56712;SDS011;42589;45.536;9.032;2023-02-20T11:16:24;133.50;;;72.47;;
56712;SDS011;42589;45.536;9.032;2023-02-20T11:20:35;123.38;;;69.78;;
56712;SDS011;42589;45.536;9.032;2023-02-20T11:23:00;121.40;;;67.60;;
56712;SDS011;42589;45.536;9.032;2023-02-20T11:29:21;123.20;;;69.18;;
56712;SDS011;42589;45.536;9.032;2023-02-20T11:32:27;117.82;;;63.00;;
56712;SDS011;42589;45.536;9.032;2023-02-20T11:35:37;112.97;;;63.40;;
56712;SDS011;42589;45.536;9.032;2023-02-20T11:38:40;125.03;;;68.45;;
56712;SDS011;42589;45.536;9.032;2023-02-20T11:41:42;123.82;;;68.50;;
56712;SDS011;42589;45.536;9.032;2023-02-20T11:44:43;114.10;;;65.18;;
56712;SDS011;42589;45.536;9.032;2023-02-20T11:47:44;110.25;;;62.35;;
56712;SDS011;42589;45.536;9.032;2023-02-20T11:50:48;111.25;;;63.63;;
56712;SDS011;42589;45.536;9.032;2023-02-20T11:53:59;113.45;;;63.80;;
56712;SDS011;42589;45.536;9.032;2023-02-20T12:00:27;121.60;;;65.53;;
56712;SDS011;42589;45.536;9.032;2023-02-20T12:03:42;124.05;;;66.90;;
56712;SDS011;42589;45.536;9.032;2023-02-20T12:06:54;115.90;;;66.93;;
56712;SDS011;42589;45.536;9.032;2023-02-20T12:10:00;113.90;;;63.88;;
56712;SDS011;42589;45.536;9.032;2023-02-20T12:13:23;116.70;;;66.18;;
56712;SDS011;42589;45.536;9.032;2023-02-20T12:23:09;106.32;;;59.03;;
56712;SDS011;42589;45.536;9.032;2023-02-20T12:36:43;109.20;;;60.78;;
56712;SDS011;42589;45.536;9.032;2023-02-20T12:43:16;97.65;;;57.78;;
56712;SDS011;42589;45.536;9.032;2023-02-20T12:50:17;96.13;;;54.28;;
56712;SDS011;42589;45.536;9.032;2023-02-20T12:59:56;90.00;;;52.50;;
56712;SDS011;42589;45.536;9.032;2023-02-20T13:03:10;89.32;;;51.08;;
56712;SDS011;42589;45.536;9.032;2023-02-20T13:06:45;92.50;;;50.17;;
56712;SDS011;42589;45.536;9.032;2023-02-20T13:09:58;79.22;;;46.38;;
56712;SDS011;42589;45.536;9.032;2023-02-20T13:13:01;84.20;;;48.33;;
56712;SDS011;42589;45.536;9.032;2023-02-20T13:16:06;86.80;;;50.42;;
56712;SDS011;42589;45.536;9.032;2023-02-20T13:22:19;77.43;;;45.90;;
56712;SDS011;42589;45.536;9.032;2023-02-20T13:25:34;76.72;;;45.17;;
56712;SDS011;42589;45.536;9.032;2023-02-20T13:28:42;76.95;;;46.30;;
56712;SDS011;42589;45.536;9.032;2023-02-20T13:34:48;83.75;;;48.97;;
56712;SDS011;42589;45.536;9.032;2023-02-20T13:37:49;83.78;;;48.70;;
56712;SDS011;42589;45.536;9.032;2023-02-20T13:44:01;87.35;;;50.35;;
56712;SDS011;42589;45.536;9.032;2023-02-20T13:47:30;81.28;;;47.42;;
56712;SDS011;42589;45.536;9.032;2023-02-20T13:50:40;76.72;;;45.42;;
56712;SDS011;42589;45.536;9.032;2023-02-20T13:53:41;83.03;;;48.28;;
56712;SDS011;42589;45.536;9.032;2023-02-20T13:56:45;90.53;;;52.80;;
56712;SDS011;42589;45.536;9.032;2023-02-20T13:59:56;98.38;;;56.70;;
56712;SDS011;42589;45.536;9.032;2023-02-20T14:02:57;105.90;;;60.97;;
56712;SDS011;42589;45.536;9.032;2023-02-20T14:09:20;102.43;;;57.63;;
56712;SDS011;42589;45.536;9.032;2023-02-20T14:12:23;97.95;;;58.20;;
56712;SDS011;42589;45.536;9.032;2023-02-20T14:15:26;91.03;;;53.20;;
56712;SDS011;42589;45.536;9.032;2023-02-20T14:18:30;91.25;;;52.83;;
56712;SDS011;42589;45.536;9.032;2023-02-20T14:21:34;84.63;;;49.00;;
56712;SDS011;42589;45.536;9.032;2023-02-20T14:24:38;91.78;;;52.95;;
56712;SDS011;42589;45.536;9.032;2023-02-20T14:27:39;81.78;;;49.17;;
56712;SDS011;42589;45.536;9.032;2023-02-20T14:30:40;88.28;;;50.47;;
56712;SDS011;42589;45.536;9.032;2023-02-20T14:33:41;81.03;;;48.10;;
56712;SDS011;42589;45.536;9.032;2023-02-20T14:40:42;73.82;;;45.20;;
56712;SDS011;42589;45.536;9.032;2023-02-20T14:43:57;84.05;;;47.65;;
56712;SDS011;42589;45.536;9.032;2023-02-20T14:50:18;85.28;;;47.83;;
56712;SDS011;42589;45.536;9.032;2023-02-20T14:53:21;83.13;;;48.45;;
56712;SDS011;42589;45.536;9.032;2023-02-20T14:56:22;84.43;;;49.78;;
56712;SDS011;42589;45.536;9.032;2023-02-20T14:59:31;87.60;;;48.83;;
56712;SDS011;42589;45.536;9.032;2023-02-20T15:02:39;85.07;;;47.88;;
56712;SDS011;42589;45.536;9.032;2023-02-20T15:05:42;84.68;;;51.03;;
56712;SDS011;42589;45.536;9.032;2023-02-20T15:08:44;89.97;;;52.53;;
56712;SDS011;42589;45.536;9.032;2023-02-20T15:11:52;100.28;;;55.17;;
56712;SDS011;42589;45.536;9.032;2023-02-20T15:15:03;97.97;;;54.92;;
56712;SDS011;42589;45.536;9.032;2023-02-20T15:18:12;97.65;;;56.97;;
56712;SDS011;42589;45.536;9.032;2023-02-20T15:21:39;97.35;;;56.58;;
56712;SDS011;42589;45.536;9.032;2023-02-20T15:24:40;95.90;;;57.17;;
56712;SDS011;42589;45.536;9.032;2023-02-20T15:28:02;104.30;;;57.67;;
56712;SDS011;42589;45.536;9.032;2023-02-20T15:31:22;99.32;;;56.90;;
56712;SDS011;42589;45.536;9.032;2023-02-20T15:34:24;107.93;;;57.45;;
56712;SDS011;42589;45.536;9.032;2023-02-20T15:37:36;97.85;;;55.55;;
56712;SDS011;42589;45.536;9.032;2023-02-20T15:40:36;94.32;;;55.03;;
56712;SDS011;42589;45.536;9.032;2023-02-20T15:43:37;97.65;;;55.38;;
56712;SDS011;42589;45.536;9.032;2023-02-20T15:46:38;103.30;;;56.70;;
56712;SDS011;42589;45.536;9.032;2023-02-20T15:49:40;92.38;;;54.40;;
56712;SDS011;42589;45.536;9.032;2023-02-20T15:52:41;98.53;;;55.67;;
56712;SDS011;42589;45.536;9.032;2023-02-20T15:55:44;103.75;;;59.88;;
56712;SDS011;42589;45.536;9.032;2023-02-20T15:58:45;104.72;;;60.20;;
56712;SDS011;42589;45.536;9.032;2023-02-20T16:01:48;102.75;;;58.45;;
56712;SDS011;42589;45.536;9.032;2023-02-20T16:04:49;99.13;;;57.38;;
56712;SDS011;42589;45.536;9.032;2023-02-20T16:07:51;100.75;;;57.88;;
56712;SDS011;42589;45.536;9.032;2023-02-20T16:10:52;95.82;;;56.42;;
56712;SDS011;42589;45.536;9.032;2023-02-20T16:13:55;99.72;;;57.60;;
56712;SDS011;42589;45.536;9.032;2023-02-20T16:16:57;103.82;;;59.13;;
56712;SDS011;42589;45.536;9.032;2023-02-20T16:19:58;105.35;;;58.85;;
56712;SDS011;42589;45.536;9.032;2023-02-20T16:22:59;109.95;;;62.88;;
56712;SDS011;42589;45.536;9.032;2023-02-20T16:25:59;111.93;;;61.63;;
56712;SDS011;42589;45.536;9.032;2023-02-20T16:29:19;117.15;;;64.22;;
56712;SDS011;42589;45.536;9.032;2023-02-20T16:32:24;115.80;;;62.88;;
56712;SDS011;42589;45.536;9.032;2023-02-20T16:35:32;113.80;;;64.53;;
56712;SDS011;42589;45.536;9.032;2023-02-20T16:38:51;112.10;;;61.80;;
56712;SDS011;42589;45.536;9.032;2023-02-20T16:41:52;110.50;;;61.78;;
56712;SDS011;42589;45.536;9.032;2023-02-20T16:44:53;112.20;;;63.40;;
56712;SDS011;42589;45.536;9.032;2023-02-20T16:47:55;119.00;;;66.97;;
56712;SDS011;42589;45.536;9.032;2023-02-20T16:50:56;111.72;;;67.03;;
56712;SDS011;42589;45.536;9.032;2023-02-20T16:53:57;113.88;;;65.15;;
56712;SDS011;42589;45.536;9.032;2023-02-20T16:56:58;118.80;;;65.72;;
56712;SDS011;42589;45.536;9.032;2023-02-20T16:59:59;113.63;;;64.93;;
56712;SDS011;42589;45.536;9.032;2023-02-20T17:03:00;118.10;;;66.28;;
56712;SDS011;42589;45.536;9.032;2023-02-20T17:06:01;113.03;;;63.75;;
56712;SDS011;42589;45.536;9.032;2023-02-20T17:09:02;112.65;;;65.60;;
56712;SDS011;42589;45.536;9.032;2023-02-20T17:12:03;115.57;;;64.57;;
56712;SDS011;42589;45.536;9.032;2023-02-20T17:15:05;116.70;;;66.53;;
56712;SDS011;42589;45.536;9.032;2023-02-20T17:18:10;110.45;;;63.85;;
56712;SDS011;42589;45.536;9.032;2023-02-20T17:21:12;122.00;;;67.90;;
56712;SDS011;42589;45.536;9.032;2023-02-20T17:24:13;118.30;;;65.63;;
56712;SDS011;42589;45.536;9.032;2023-02-20T17:27:14;118.07;;;65.68;;
56712;SDS011;42589;45.536;9.032;2023-02-20T17:30:15;122.18;;;68.55;;
56712;SDS011;42589;45.536;9.032;2023-02-20T17:33:20;111.03;;;64.03;;
56712;SDS011;42589;45.536;9.032;2023-02-20T17:36:22;121.80;;;67.18;;
56712;SDS011;42589;45.536;9.032;2023-02-20T17:39:23;118.30;;;66.70;;
56712;SDS011;42589;45.536;9.032;2023-02-20T17:42:24;122.18;;;67.20;;
56712;SDS011;42589;45.536;9.032;2023-02-20T17:45:25;126.00;;;68.20;;
56712;SDS011;42589;45.536;9.032;2023-02-20T17:48:27;131.15;;;69.78;;
56712;SDS011;42589;45.536;9.032;2023-02-20T17:51:29;116.13;;;67.05;;
56712;SDS011;42589;45.536;9.032;2023-02-20T17:54:31;120.00;;;68.85;;
56712;SDS011;42589;45.536;9.032;2023-02-20T17:57:35;127.50;;;70.55;;
56712;SDS011;42589;45.536;9.032;2023-02-20T18:00:36;118.85;;;67.93;;
56712;SDS011;42589;45.536;9.032;2023-02-20T18:03:38;127.30;;;69.95;;
56712;SDS011;42589;45.536;9.032;2023-02-20T18:06:39;122.85;;;69.93;;
56712;SDS011;42589;45.536;9.032;2023-02-20T18:09:40;123.85;;;69.47;;
56712;SDS011;42589;45.536;9.032;2023-02-20T18:12:41;130.15;;;71.18;;
56712;SDS011;42589;45.536;9.032;2023-02-20T18:15:42;129.80;;;71.30;;
56712;SDS011;42589;45.536;9.032;2023-02-20T18:18:44;120.25;;;68.38;;
56712;SDS011;42589;45.536;9.032;2023-02-20T18:21:44;124.43;;;69.82;;
56712;SDS011;42589;45.536;9.032;2023-02-20T18:24:48;132.30;;;71.22;;
56712;SDS011;42589;45.536;9.032;2023-02-20T18:27:55;122.72;;;70.95;;
56712;SDS011;42589;45.536;9.032;2023-02-20T18:30:56;126.40;;;70.07;;
56712;SDS011;42589;45.536;9.032;2023-02-20T18:33:58;129.07;;;70.80;;
56712;SDS011;42589;45.536;9.032;2023-02-20T18:37:02;131.93;;;72.03;;
56712;SDS011;42589;45.536;9.032;2023-02-20T18:40:03;123.57;;;70.22;;
56712;SDS011;42589;45.536;9.032;2023-02-20T18:43:05;134.10;;;72.35;;
56712;SDS011;42589;45.536;9.032;2023-02-20T18:46:07;135.88;;;75.45;;
56712;SDS011;42589;45.536;9.032;2023-02-20T18:49:08;134.25;;;74.20;;
56712;SDS011;42589;45.536;9.032;2023-02-20T18:52:09;135.52;;;71.95;;
56712;SDS011;42589;45.536;9.032;2023-02-20T18:55:10;129.38;;;70.97;;
56712;SDS011;42589;45.536;9.032;2023-02-20T18:58:16;126.13;;;71.88;;
56712;SDS011;42589;45.536;9.032;2023-02-20T19:01:17;133.00;;;71.88;;
56712;SDS011;42589;45.536;9.032;2023-02-20T19:04:19;131.75;;;74.05;;
56712;SDS011;42589;45.536;9.032;2023-02-20T19:07:21;131.45;;;73.63;;
56712;SDS011;42589;45.536;9.032;2023-02-20T19:10:23;127.80;;;72.30;;
56712;SDS011;42589;45.536;9.032;2023-02-20T19:13:24;132.00;;;72.43;;
56712;SDS011;42589;45.536;9.032;2023-02-20T19:16:25;132.25;;;75.15;;
56712;SDS011;42589;45.536;9.032;2023-02-20T19:19:27;122.95;;;70.22;;
56712;SDS011;42589;45.536;9.032;2023-02-20T19:22:29;132.50;;;74.45;;
56712;SDS011;42589;45.536;9.032;2023-02-20T19:25:30;131.13;;;72.55;;
56712;SDS011;42589;45.536;9.032;2023-02-20T19:28:30;132.10;;;74.20;;
56712;SDS011;42589;45.536;9.032;2023-02-20T19:31:32;125.82;;;73.60;;
56712;SDS011;42589;45.536;9.032;2023-02-20T19:34:33;134.85;;;75.88;;
56712;SDS011;42589;45.536;9.032;2023-02-20T19:37:37;135.45;;;75.78;;
56712;SDS011;42589;45.536;9.032;2023-02-20T19:40:38;141.82;;;76.82;;
56712;SDS011;42589;45.536;9.032;2023-02-20T19:43:39;135.00;;;75.55;;
56712;SDS011;42589;45.536;9.032;2023-02-20T19:46:40;132.23;;;74.75;;
56712;SDS011;42589;45.536;9.032;2023-02-20T19:49:44;142.88;;;78.72;;